sensor_id;sensor_type;location;lat;lon;timestamp;P1;durP1;ratioP1;P2;durP2;ratioP2
8594;SDS011;4335;48.860;9.198;2023-02-15T00:01:50;23.57;;;15.87;;
8594;SDS011;4335;48.860;9.198;2023-02-15T00:04:24;24.33;;;15.20;;
8594;SDS011;4335;48.860;9.198;2023-02-15T00:07:14;24.40;;;17.57;;
8594;SDS011;4335;48.860;9.198;2023-02-15T00:09:41;25.20;;;16.40;;
8594;SDS011;4335;48.860;9.198;2023-02-15T00:12:08;24.90;;;15.33;;
8594;SDS011;4335;48.860;9.198;2023-02-15T00:14:35;19.57;;;13.87;;
8594;SDS011;4335;48.860;9.198;2023-02-15T00:17:03;21.60;;;15.87;;
8594;SDS011;4335;48.860;9.198;2023-02-15T00:19:29;22.73;;;15.00;;
8594;SDS011;4335;48.860;9.198;2023-02-15T00:21:58;22.10;;;15.50;;
8594;SDS011;4335;48.860;9.198;2023-02-15T00:24:25;20.00;;;14.80;;
8594;SDS011;4335;48.860;9.198;2023-02-15T00:26:52;21.80;;;14.43;;
8594;SDS011;4335;48.860;9.198;2023-02-15T00:29:22;24.87;;;16.53;;
8594;SDS011;4335;48.860;9.198;2023-02-15T00:31:49;26.40;;;15.97;;
8594;SDS011;4335;48.860;9.198;2023-02-15T00:34:20;21.73;;;15.80;;
8594;SDS011;4335;48.860;9.198;2023-02-15T00:36:51;22.23;;;15.63;;
8594;SDS011;4335;48.860;9.198;2023-02-15T00:39:18;22.40;;;15.17;;
8594;SDS011;4335;48.860;9.198;2023-02-15T00:41:45;23.40;;;15.00;;
8594;SDS011;4335;48.860;9.198;2023-02-15T00:44:12;20.47;;;14.33;;
8594;SDS011;4335;48.860;9.198;2023-02-15T00:46:42;21.70;;;13.97;;
8594;SDS011;4335;48.860;9.198;2023-02-15T00:49:09;21.00;;;14.20;;
8594;SDS011;4335;48.860;9.198;2023-02-15T00:51:37;20.27;;;14.67;;
8594;SDS011;4335;48.860;9.198;2023-02-15T00:54:05;21.77;;;14.80;;
8594;SDS011;4335;48.860;9.198;2023-02-15T00:56:31;22.83;;;15.17;;
8594;SDS011;4335;48.860;9.198;2023-02-15T00:58:58;19.43;;;13.70;;
8594;SDS011;4335;48.860;9.198;2023-02-15T01:01:25;20.07;;;13.47;;
8594;SDS011;4335;48.860;9.198;2023-02-15T01:03:52;19.77;;;14.07;;
8594;SDS011;4335;48.860;9.198;2023-02-15T01:06:18;20.80;;;14.60;;
8594;SDS011;4335;48.860;9.198;2023-02-15T01:08:46;22.30;;;13.67;;
8594;SDS011;4335;48.860;9.198;2023-02-15T01:11:14;18.67;;;13.97;;
8594;SDS011;4335;48.860;9.198;2023-02-15T01:13:47;25.37;;;14.83;;
8594;SDS011;4335;48.860;9.198;2023-02-15T01:16:26;20.17;;;14.53;;
8594;SDS011;4335;48.860;9.198;2023-02-15T01:19:02;22.57;;;15.57;;
8594;SDS011;4335;48.860;9.198;2023-02-15T01:21:28;23.33;;;14.30;;
8594;SDS011;4335;48.860;9.198;2023-02-15T01:23:56;23.43;;;17.30;;
8594;SDS011;4335;48.860;9.198;2023-02-15T01:26:24;25.43;;;16.37;;
8594;SDS011;4335;48.860;9.198;2023-02-15T01:28:51;24.17;;;15.20;;
8594;SDS011;4335;48.860;9.198;2023-02-15T01:31:23;19.60;;;14.57;;
8594;SDS011;4335;48.860;9.198;2023-02-15T01:33:49;23.70;;;15.77;;
8594;SDS011;4335;48.860;9.198;2023-02-15T01:36:19;23.73;;;16.57;;
8594;SDS011;4335;48.860;9.198;2023-02-15T01:38:46;23.60;;;16.30;;
8594;SDS011;4335;48.860;9.198;2023-02-15T01:41:13;22.50;;;14.50;;
8594;SDS011;4335;48.860;9.198;2023-02-15T01:43:48;24.23;;;15.20;;
8594;SDS011;4335;48.860;9.198;2023-02-15T01:46:16;19.70;;;13.80;;
8594;SDS011;4335;48.860;9.198;2023-02-15T01:48:46;21.10;;;14.37;;
8594;SDS011;4335;48.860;9.198;2023-02-15T01:51:23;20.20;;;12.93;;
8594;SDS011;4335;48.860;9.198;2023-02-15T01:53:53;17.33;;;12.90;;
8594;SDS011;4335;48.860;9.198;2023-02-15T01:56:25;20.93;;;13.60;;
8594;SDS011;4335;48.860;9.198;2023-02-15T01:58:55;17.57;;;12.87;;
8594;SDS011;4335;48.860;9.198;2023-02-15T02:01:25;19.40;;;13.30;;
8594;SDS011;4335;48.860;9.198;2023-02-15T02:03:56;20.53;;;13.63;;
8594;SDS011;4335;48.860;9.198;2023-02-15T02:06:30;23.37;;;14.53;;
8594;SDS011;4335;48.860;9.198;2023-02-15T02:08:59;20.47;;;13.30;;
8594;SDS011;4335;48.860;9.198;2023-02-15T02:11:27;20.87;;;14.43;;
8594;SDS011;4335;48.860;9.198;2023-02-15T02:13:54;21.03;;;14.93;;
8594;SDS011;4335;48.860;9.198;2023-02-15T02:16:22;20.37;;;14.00;;
8594;SDS011;4335;48.860;9.198;2023-02-15T02:18:57;19.43;;;14.80;;
8594;SDS011;4335;48.860;9.198;2023-02-15T02:22:07;18.80;;;13.97;;
8594;SDS011;4335;48.860;9.198;2023-02-15T02:27:44;23.20;;;15.13;;
8594;SDS011;4335;48.860;9.198;2023-02-15T02:30:41;21.20;;;14.07;;
8594;SDS011;4335;48.860;9.198;2023-02-15T02:36:10;22.83;;;14.53;;
8594;SDS011;4335;48.860;9.198;2023-02-15T02:38:54;20.63;;;13.90;;
8594;SDS011;4335;48.860;9.198;2023-02-15T02:41:35;21.20;;;14.57;;
8594;SDS011;4335;48.860;9.198;2023-02-15T02:44:09;17.77;;;13.47;;
8594;SDS011;4335;48.860;9.198;2023-02-15T02:46:46;18.10;;;13.37;;
8594;SDS011;4335;48.860;9.198;2023-02-15T02:49:29;17.63;;;13.00;;
8594;SDS011;4335;48.860;9.198;2023-02-15T02:52:00;21.03;;;14.00;;
8594;SDS011;4335;48.860;9.198;2023-02-15T02:54:29;24.53;;;16.00;;
8594;SDS011;4335;48.860;9.198;2023-02-15T02:56:59;23.70;;;15.50;;
8594;SDS011;4335;48.860;9.198;2023-02-15T02:59:30;22.30;;;14.97;;
8594;SDS011;4335;48.860;9.198;2023-02-15T03:01:59;19.30;;;14.73;;
8594;SDS011;4335;48.860;9.198;2023-02-15T03:04:34;23.83;;;15.80;;
8594;SDS011;4335;48.860;9.198;2023-02-15T03:07:04;22.90;;;16.00;;
8594;SDS011;4335;48.860;9.198;2023-02-15T03:09:34;23.37;;;15.43;;
8594;SDS011;4335;48.860;9.198;2023-02-15T03:12:09;22.77;;;15.50;;
8594;SDS011;4335;48.860;9.198;2023-02-15T03:14:39;22.97;;;15.43;;
8594;SDS011;4335;48.860;9.198;2023-02-15T03:17:08;22.40;;;15.70;;
8594;SDS011;4335;48.860;9.198;2023-02-15T03:19:37;27.53;;;16.00;;
8594;SDS011;4335;48.860;9.198;2023-02-15T03:22:06;28.97;;;17.53;;
8594;SDS011;4335;48.860;9.198;2023-02-15T03:24:40;27.37;;;18.00;;
8594;SDS011;4335;48.860;9.198;2023-02-15T03:27:10;36.93;;;19.23;;
8594;SDS011;4335;48.860;9.198;2023-02-15T03:29:43;31.37;;;17.37;;
8594;SDS011;4335;48.860;9.198;2023-02-15T03:32:12;29.03;;;16.87;;
8594;SDS011;4335;48.860;9.198;2023-02-15T03:34:41;30.60;;;19.07;;
8594;SDS011;4335;48.860;9.198;2023-02-15T03:37:10;28.93;;;17.53;;
8594;SDS011;4335;48.860;9.198;2023-02-15T03:39:42;31.40;;;17.30;;
8594;SDS011;4335;48.860;9.198;2023-02-15T03:42:16;27.20;;;15.77;;
8594;SDS011;4335;48.860;9.198;2023-02-15T03:44:47;23.40;;;14.70;;
8594;SDS011;4335;48.860;9.198;2023-02-15T03:47:18;27.50;;;16.40;;
8594;SDS011;4335;48.860;9.198;2023-02-15T03:49:48;24.97;;;16.40;;
8594;SDS011;4335;48.860;9.198;2023-02-15T03:52:19;35.77;;;17.07;;
8594;SDS011;4335;48.860;9.198;2023-02-15T03:54:48;27.63;;;17.27;;
8594;SDS011;4335;48.860;9.198;2023-02-15T03:57:19;29.20;;;16.37;;
8594;SDS011;4335;48.860;9.198;2023-02-15T04:00:06;25.07;;;16.43;;
8594;SDS011;4335;48.860;9.198;2023-02-15T04:03:11;23.90;;;15.47;;
8594;SDS011;4335;48.860;9.198;2023-02-15T04:05:50;23.53;;;14.67;;
8594;SDS011;4335;48.860;9.198;2023-02-15T04:08:17;28.03;;;13.60;;
8594;SDS011;4335;48.860;9.198;2023-02-15T04:10:43;23.77;;;14.73;;
8594;SDS011;4335;48.860;9.198;2023-02-15T04:13:30;22.50;;;15.30;;
8594;SDS011;4335;48.860;9.198;2023-02-15T04:15:57;29.07;;;15.27;;
8594;SDS011;4335;48.860;9.198;2023-02-15T04:18:33;21.27;;;14.37;;
8594;SDS011;4335;48.860;9.198;2023-02-15T04:21:20;24.17;;;15.33;;
8594;SDS011;4335;48.860;9.198;2023-02-15T04:24:09;26.97;;;15.53;;
8594;SDS011;4335;48.860;9.198;2023-02-15T04:26:55;22.17;;;13.77;;
8594;SDS011;4335;48.860;9.198;2023-02-15T04:29:22;25.20;;;14.23;;
8594;SDS011;4335;48.860;9.198;2023-02-15T04:31:50;26.57;;;14.40;;
8594;SDS011;4335;48.860;9.198;2023-02-15T04:34:17;26.10;;;15.60;;
8594;SDS011;4335;48.860;9.198;2023-02-15T04:36:44;25.73;;;15.13;;
8594;SDS011;4335;48.860;9.198;2023-02-15T04:39:12;26.70;;;14.43;;
8594;SDS011;4335;48.860;9.198;2023-02-15T04:41:39;24.37;;;14.23;;
8594;SDS011;4335;48.860;9.198;2023-02-15T04:44:10;24.57;;;13.80;;
8594;SDS011;4335;48.860;9.198;2023-02-15T04:46:37;22.73;;;13.77;;
8594;SDS011;4335;48.860;9.198;2023-02-15T04:49:03;24.30;;;14.57;;
8594;SDS011;4335;48.860;9.198;2023-02-15T04:51:30;22.30;;;15.27;;
8594;SDS011;4335;48.860;9.198;2023-02-15T04:53:58;22.40;;;14.83;;
8594;SDS011;4335;48.860;9.198;2023-02-15T04:56:24;23.27;;;13.97;;
8594;SDS011;4335;48.860;9.198;2023-02-15T04:58:51;28.50;;;16.23;;
8594;SDS011;4335;48.860;9.198;2023-02-15T05:01:17;23.10;;;14.03;;
8594;SDS011;4335;48.860;9.198;2023-02-15T05:03:44;25.00;;;15.87;;
8594;SDS011;4335;48.860;9.198;2023-02-15T05:06:11;25.70;;;15.83;;
8594;SDS011;4335;48.860;9.198;2023-02-15T05:08:43;34.23;;;16.10;;
8594;SDS011;4335;48.860;9.198;2023-02-15T05:11:11;23.40;;;14.30;;
8594;SDS011;4335;48.860;9.198;2023-02-15T05:13:37;24.47;;;13.87;;
8594;SDS011;4335;48.860;9.198;2023-02-15T05:16:07;27.00;;;14.93;;
8594;SDS011;4335;48.860;9.198;2023-02-15T05:18:34;29.60;;;15.73;;
8594;SDS011;4335;48.860;9.198;2023-02-15T05:21:00;24.83;;;15.07;;
8594;SDS011;4335;48.860;9.198;2023-02-15T05:23:30;21.43;;;13.87;;
8594;SDS011;4335;48.860;9.198;2023-02-15T05:25:57;19.00;;;13.63;;
8594;SDS011;4335;48.860;9.198;2023-02-15T05:28:42;40.43;;;16.47;;
8594;SDS011;4335;48.860;9.198;2023-02-15T05:31:13;27.27;;;15.40;;
8594;SDS011;4335;48.860;9.198;2023-02-15T05:33:41;23.00;;;13.50;;
8594;SDS011;4335;48.860;9.198;2023-02-15T05:36:11;23.07;;;14.70;;
8594;SDS011;4335;48.860;9.198;2023-02-15T05:38:40;22.70;;;14.10;;
8594;SDS011;4335;48.860;9.198;2023-02-15T05:41:07;19.47;;;12.73;;
8594;SDS011;4335;48.860;9.198;2023-02-15T05:43:35;21.23;;;13.53;;
8594;SDS011;4335;48.860;9.198;2023-02-15T05:46:09;19.00;;;12.30;;
8594;SDS011;4335;48.860;9.198;2023-02-15T05:48:36;21.57;;;12.50;;
8594;SDS011;4335;48.860;9.198;2023-02-15T05:51:04;18.53;;;12.93;;
8594;SDS011;4335;48.860;9.198;2023-02-15T05:53:33;30.70;;;14.33;;
8594;SDS011;4335;48.860;9.198;2023-02-15T05:56:00;23.43;;;14.73;;
8594;SDS011;4335;48.860;9.198;2023-02-15T05:58:29;26.00;;;14.53;;
8594;SDS011;4335;48.860;9.198;2023-02-15T06:00:57;21.60;;;13.67;;
8594;SDS011;4335;48.860;9.198;2023-02-15T06:03:24;24.67;;;14.33;;
8594;SDS011;4335;48.860;9.198;2023-02-15T06:05:53;19.13;;;12.73;;
8594;SDS011;4335;48.860;9.198;2023-02-15T06:08:22;23.97;;;14.40;;
8594;SDS011;4335;48.860;9.198;2023-02-15T06:10:49;20.80;;;14.50;;
8594;SDS011;4335;48.860;9.198;2023-02-15T06:13:19;28.93;;;15.33;;
8594;SDS011;4335;48.860;9.198;2023-02-15T06:15:45;22.17;;;14.23;;
8594;SDS011;4335;48.860;9.198;2023-02-15T06:18:12;22.53;;;14.20;;
8594;SDS011;4335;48.860;9.198;2023-02-15T06:20:39;24.57;;;14.40;;
8594;SDS011;4335;48.860;9.198;2023-02-15T06:23:06;22.63;;;14.40;;
8594;SDS011;4335;48.860;9.198;2023-02-15T06:25:35;24.63;;;14.47;;
8594;SDS011;4335;48.860;9.198;2023-02-15T06:28:02;27.97;;;14.07;;
8594;SDS011;4335;48.860;9.198;2023-02-15T06:30:35;21.70;;;15.37;;
8594;SDS011;4335;48.860;9.198;2023-02-15T06:33:02;23.70;;;14.90;;
8594;SDS011;4335;48.860;9.198;2023-02-15T06:35:37;24.37;;;14.47;;
8594;SDS011;4335;48.860;9.198;2023-02-15T06:38:05;19.87;;;13.57;;
8594;SDS011;4335;48.860;9.198;2023-02-15T06:40:34;24.40;;;14.30;;
8594;SDS011;4335;48.860;9.198;2023-02-15T06:43:07;24.43;;;14.90;;
8594;SDS011;4335;48.860;9.198;2023-02-15T06:45:42;21.80;;;14.27;;
8594;SDS011;4335;48.860;9.198;2023-02-15T06:48:09;20.47;;;14.93;;
8594;SDS011;4335;48.860;9.198;2023-02-15T06:50:36;21.67;;;13.07;;
8594;SDS011;4335;48.860;9.198;2023-02-15T06:53:06;19.50;;;12.90;;
8594;SDS011;4335;48.860;9.198;2023-02-15T06:55:33;24.17;;;13.77;;
8594;SDS011;4335;48.860;9.198;2023-02-15T06:58:00;22.73;;;14.23;;
8594;SDS011;4335;48.860;9.198;2023-02-15T07:00:29;21.77;;;13.50;;
8594;SDS011;4335;48.860;9.198;2023-02-15T07:02:59;20.87;;;13.70;;
8594;SDS011;4335;48.860;9.198;2023-02-15T07:05:34;22.03;;;13.00;;
8594;SDS011;4335;48.860;9.198;2023-02-15T07:08:04;19.53;;;14.10;;
8594;SDS011;4335;48.860;9.198;2023-02-15T07:10:33;19.03;;;13.00;;
8594;SDS011;4335;48.860;9.198;2023-02-15T07:13:00;21.57;;;13.23;;
8594;SDS011;4335;48.860;9.198;2023-02-15T07:15:26;19.80;;;13.80;;
8594;SDS011;4335;48.860;9.198;2023-02-15T07:17:53;23.50;;;11.67;;
8594;SDS011;4335;48.860;9.198;2023-02-15T07:20:20;18.10;;;11.53;;
8594;SDS011;4335;48.860;9.198;2023-02-15T07:22:48;16.07;;;11.47;;
8594;SDS011;4335;48.860;9.198;2023-02-15T07:25:17;19.27;;;11.60;;
8594;SDS011;4335;48.860;9.198;2023-02-15T07:27:44;27.43;;;11.77;;
8594;SDS011;4335;48.860;9.198;2023-02-15T07:30:11;21.13;;;11.33;;
8594;SDS011;4335;48.860;9.198;2023-02-15T07:32:42;16.13;;;11.00;;
8594;SDS011;4335;48.860;9.198;2023-02-15T07:35:23;16.37;;;11.90;;
8594;SDS011;4335;48.860;9.198;2023-02-15T07:37:55;14.07;;;10.53;;
8594;SDS011;4335;48.860;9.198;2023-02-15T07:40:29;16.03;;;11.13;;
8594;SDS011;4335;48.860;9.198;2023-02-15T07:42:57;18.30;;;10.60;;
8594;SDS011;4335;48.860;9.198;2023-02-15T07:45:24;14.90;;;10.40;;
8594;SDS011;4335;48.860;9.198;2023-02-15T07:47:52;16.20;;;11.27;;
8594;SDS011;4335;48.860;9.198;2023-02-15T07:50:22;14.53;;;10.43;;
8594;SDS011;4335;48.860;9.198;2023-02-15T07:52:49;15.17;;;10.90;;
8594;SDS011;4335;48.860;9.198;2023-02-15T07:55:21;15.87;;;10.23;;
8594;SDS011;4335;48.860;9.198;2023-02-15T07:57:49;18.30;;;11.40;;
8594;SDS011;4335;48.860;9.198;2023-02-15T08:00:17;15.67;;;10.70;;
8594;SDS011;4335;48.860;9.198;2023-02-15T08:02:51;15.90;;;10.50;;
8594;SDS011;4335;48.860;9.198;2023-02-15T08:05:34;16.40;;;10.33;;
8594;SDS011;4335;48.860;9.198;2023-02-15T08:08:01;17.13;;;10.90;;
8594;SDS011;4335;48.860;9.198;2023-02-15T08:10:27;16.37;;;11.87;;
8594;SDS011;4335;48.860;9.198;2023-02-15T08:13:09;19.20;;;11.93;;
8594;SDS011;4335;48.860;9.198;2023-02-15T08:15:39;16.93;;;12.90;;
8594;SDS011;4335;48.860;9.198;2023-02-15T08:18:06;18.77;;;12.20;;
8594;SDS011;4335;48.860;9.198;2023-02-15T08:20:34;17.73;;;12.83;;
8594;SDS011;4335;48.860;9.198;2023-02-15T08:23:00;18.10;;;12.03;;
8594;SDS011;4335;48.860;9.198;2023-02-15T08:25:30;19.87;;;12.80;;
8594;SDS011;4335;48.860;9.198;2023-02-15T08:27:56;20.83;;;13.30;;
8594;SDS011;4335;48.860;9.198;2023-02-15T08:30:24;16.93;;;13.13;;
8594;SDS011;4335;48.860;9.198;2023-02-15T08:32:51;17.10;;;12.57;;
8594;SDS011;4335;48.860;9.198;2023-02-15T08:35:17;20.53;;;14.27;;
8594;SDS011;4335;48.860;9.198;2023-02-15T08:37:47;24.20;;;14.10;;
8594;SDS011;4335;48.860;9.198;2023-02-15T08:40:14;20.73;;;13.97;;
8594;SDS011;4335;48.860;9.198;2023-02-15T08:42:43;24.00;;;16.10;;
8594;SDS011;4335;48.860;9.198;2023-02-15T08:45:10;28.53;;;20.97;;
8594;SDS011;4335;48.860;9.198;2023-02-15T08:47:37;24.90;;;16.60;;
8594;SDS011;4335;48.860;9.198;2023-02-15T08:50:07;19.97;;;14.87;;
8594;SDS011;4335;48.860;9.198;2023-02-15T08:52:34;22.43;;;14.70;;
8594;SDS011;4335;48.860;9.198;2023-02-15T08:55:01;22.87;;;14.87;;
8594;SDS011;4335;48.860;9.198;2023-02-15T08:57:31;26.67;;;16.40;;
8594;SDS011;4335;48.860;9.198;2023-02-15T08:59:58;24.13;;;15.50;;
8594;SDS011;4335;48.860;9.198;2023-02-15T09:02:24;24.73;;;15.80;;
8594;SDS011;4335;48.860;9.198;2023-02-15T09:04:57;27.03;;;16.83;;
8594;SDS011;4335;48.860;9.198;2023-02-15T09:07:34;23.50;;;15.43;;
8594;SDS011;4335;48.860;9.198;2023-02-15T09:10:01;26.80;;;16.27;;
8594;SDS011;4335;48.860;9.198;2023-02-15T09:12:28;21.07;;;15.33;;
8594;SDS011;4335;48.860;9.198;2023-02-15T09:14:57;23.57;;;15.47;;
8594;SDS011;4335;48.860;9.198;2023-02-15T09:17:24;21.87;;;15.50;;
8594;SDS011;4335;48.860;9.198;2023-02-15T09:19:51;23.13;;;14.83;;
8594;SDS011;4335;48.860;9.198;2023-02-15T09:22:21;24.27;;;14.63;;
8594;SDS011;4335;48.860;9.198;2023-02-15T09:24:50;23.47;;;14.53;;
8594;SDS011;4335;48.860;9.198;2023-02-15T09:27:20;23.40;;;14.60;;
8594;SDS011;4335;48.860;9.198;2023-02-15T09:29:47;23.17;;;15.93;;
8594;SDS011;4335;48.860;9.198;2023-02-15T09:32:13;23.37;;;15.10;;
8594;SDS011;4335;48.860;9.198;2023-02-15T09:34:43;25.33;;;16.37;;
8594;SDS011;4335;48.860;9.198;2023-02-15T09:37:10;23.60;;;15.97;;
8594;SDS011;4335;48.860;9.198;2023-02-15T09:39:37;26.43;;;17.60;;
8594;SDS011;4335;48.860;9.198;2023-02-15T09:45:20;25.40;;;16.30;;
8594;SDS011;4335;48.860;9.198;2023-02-15T09:51:00;25.13;;;15.03;;
8594;SDS011;4335;48.860;9.198;2023-02-15T09:53:40;22.60;;;14.80;;
8594;SDS011;4335;48.860;9.198;2023-02-15T09:56:19;19.03;;;12.97;;
8594;SDS011;4335;48.860;9.198;2023-02-15T09:58:57;17.27;;;12.77;;
8594;SDS011;4335;48.860;9.198;2023-02-15T10:01:34;19.50;;;12.93;;
8594;SDS011;4335;48.860;9.198;2023-02-15T10:04:15;21.47;;;13.40;;
8594;SDS011;4335;48.860;9.198;2023-02-15T10:07:00;20.63;;;13.43;;
8594;SDS011;4335;48.860;9.198;2023-02-15T10:09:42;18.30;;;13.70;;
8594;SDS011;4335;48.860;9.198;2023-02-15T10:12:31;17.67;;;13.30;;
8594;SDS011;4335;48.860;9.198;2023-02-15T10:18:11;18.73;;;12.77;;
8594;SDS011;4335;48.860;9.198;2023-02-15T10:20:58;19.27;;;13.87;;
8594;SDS011;4335;48.860;9.198;2023-02-15T10:23:45;16.67;;;12.53;;
8594;SDS011;4335;48.860;9.198;2023-02-15T10:26:25;18.93;;;13.27;;
8594;SDS011;4335;48.860;9.198;2023-02-15T10:29:01;16.80;;;12.30;;
8594;SDS011;4335;48.860;9.198;2023-02-15T10:31:32;17.93;;;12.57;;
8594;SDS011;4335;48.860;9.198;2023-02-15T10:34:08;17.17;;;12.53;;
8594;SDS011;4335;48.860;9.198;2023-02-15T10:36:46;16.27;;;13.90;;
8594;SDS011;4335;48.860;9.198;2023-02-15T10:39:31;16.97;;;12.43;;
8594;SDS011;4335;48.860;9.198;2023-02-15T10:42:06;13.53;;;12.13;;
8594;SDS011;4335;48.860;9.198;2023-02-15T10:44:43;14.07;;;12.57;;
8594;SDS011;4335;48.860;9.198;2023-02-15T10:47:22;14.60;;;12.90;;
8594;SDS011;4335;48.860;9.198;2023-02-15T10:50:02;13.20;;;11.90;;
8594;SDS011;4335;48.860;9.198;2023-02-15T10:52:42;13.88;;;12.50;;
8594;SDS011;4335;48.860;9.198;2023-02-15T10:55:23;13.55;;;12.18;;
8594;SDS011;4335;48.860;9.198;2023-02-15T10:58:03;14.70;;;13.13;;
8594;SDS011;4335;48.860;9.198;2023-02-15T11:00:43;13.68;;;12.30;;
8594;SDS011;4335;48.860;9.198;2023-02-15T11:03:24;14.57;;;13.27;;
8594;SDS011;4335;48.860;9.198;2023-02-15T11:06:03;13.85;;;12.45;;
8594;SDS011;4335;48.860;9.198;2023-02-15T11:08:35;14.27;;;12.88;;
8594;SDS011;4335;48.860;9.198;2023-02-15T11:11:06;14.80;;;13.40;;
8594;SDS011;4335;48.860;9.198;2023-02-15T11:13:38;14.85;;;13.35;;
8594;SDS011;4335;48.860;9.198;2023-02-15T11:16:13;15.40;;;13.17;;
8594;SDS011;4335;48.860;9.198;2023-02-15T11:18:43;16.77;;;14.97;;
8594;SDS011;4335;48.860;9.198;2023-02-15T11:21:17;17.80;;;14.10;;
8594;SDS011;4335;48.860;9.198;2023-02-15T11:23:48;18.70;;;15.10;;
8594;SDS011;4335;48.860;9.198;2023-02-15T11:26:16;17.93;;;15.27;;
8594;SDS011;4335;48.860;9.198;2023-02-15T11:28:49;18.37;;;14.77;;
8594;SDS011;4335;48.860;9.198;2023-02-15T11:31:24;19.57;;;15.00;;
8594;SDS011;4335;48.860;9.198;2023-02-15T11:33:53;19.87;;;14.37;;
8594;SDS011;4335;48.860;9.198;2023-02-15T11:36:26;20.63;;;15.00;;
8594;SDS011;4335;48.860;9.198;2023-02-15T11:38:58;19.03;;;14.77;;
8594;SDS011;4335;48.860;9.198;2023-02-15T11:41:29;17.90;;;14.73;;
8594;SDS011;4335;48.860;9.198;2023-02-15T11:44:04;20.40;;;15.43;;
8594;SDS011;4335;48.860;9.198;2023-02-15T11:46:33;20.77;;;15.60;;
8594;SDS011;4335;48.860;9.198;2023-02-15T11:49:00;21.43;;;15.63;;
8594;SDS011;4335;48.860;9.198;2023-02-15T11:51:28;20.60;;;15.73;;
8594;SDS011;4335;48.860;9.198;2023-02-15T11:53:55;21.80;;;16.90;;
8594;SDS011;4335;48.860;9.198;2023-02-15T11:56:22;19.17;;;14.80;;
8594;SDS011;4335;48.860;9.198;2023-02-15T11:58:52;19.90;;;15.20;;
8594;SDS011;4335;48.860;9.198;2023-02-15T12:01:30;19.23;;;15.13;;
8594;SDS011;4335;48.860;9.198;2023-02-15T12:04:04;24.13;;;16.63;;
8594;SDS011;4335;48.860;9.198;2023-02-15T12:06:35;27.13;;;17.53;;
8594;SDS011;4335;48.860;9.198;2023-02-15T12:09:16;26.43;;;17.10;;
8594;SDS011;4335;48.860;9.198;2023-02-15T12:11:49;26.43;;;18.50;;
8594;SDS011;4335;48.860;9.198;2023-02-15T12:14:16;24.13;;;18.07;;
8594;SDS011;4335;48.860;9.198;2023-02-15T12:16:43;25.30;;;18.93;;
8594;SDS011;4335;48.860;9.198;2023-02-15T12:19:26;25.80;;;18.63;;
8594;SDS011;4335;48.860;9.198;2023-02-15T12:21:56;24.77;;;18.07;;
8594;SDS011;4335;48.860;9.198;2023-02-15T12:24:26;27.87;;;18.13;;
8594;SDS011;4335;48.860;9.198;2023-02-15T12:26:56;29.00;;;19.10;;
8594;SDS011;4335;48.860;9.198;2023-02-15T12:29:28;27.20;;;18.40;;
8594;SDS011;4335;48.860;9.198;2023-02-15T12:32:00;28.33;;;20.60;;
8594;SDS011;4335;48.860;9.198;2023-02-15T12:34:35;26.27;;;19.20;;
8594;SDS011;4335;48.860;9.198;2023-02-15T12:37:08;24.37;;;18.80;;
8594;SDS011;4335;48.860;9.198;2023-02-15T12:39:53;27.07;;;19.33;;
8594;SDS011;4335;48.860;9.198;2023-02-15T12:42:21;24.20;;;19.50;;
8594;SDS011;4335;48.860;9.198;2023-02-15T12:44:56;24.60;;;17.73;;
8594;SDS011;4335;48.860;9.198;2023-02-15T12:47:30;27.50;;;19.40;;
8594;SDS011;4335;48.860;9.198;2023-02-15T12:50:08;24.23;;;17.50;;
8594;SDS011;4335;48.860;9.198;2023-02-15T12:52:42;26.43;;;19.07;;
8594;SDS011;4335;48.860;9.198;2023-02-15T12:55:16;24.37;;;19.37;;
8594;SDS011;4335;48.860;9.198;2023-02-15T12:57:45;24.57;;;18.50;;
8594;SDS011;4335;48.860;9.198;2023-02-15T13:00:25;27.73;;;19.13;;
8594;SDS011;4335;48.860;9.198;2023-02-15T13:02:57;25.80;;;18.37;;
8594;SDS011;4335;48.860;9.198;2023-02-15T13:05:27;27.93;;;19.33;;
8594;SDS011;4335;48.860;9.198;2023-02-15T13:07:58;25.13;;;18.07;;
8594;SDS011;4335;48.860;9.198;2023-02-15T13:10:31;24.57;;;18.43;;
8594;SDS011;4335;48.860;9.198;2023-02-15T13:13:01;27.17;;;18.30;;
8594;SDS011;4335;48.860;9.198;2023-02-15T13:15:35;25.80;;;18.47;;
8594;SDS011;4335;48.860;9.198;2023-02-15T13:18:04;23.30;;;18.80;;
8594;SDS011;4335;48.860;9.198;2023-02-15T13:20:37;24.67;;;18.20;;
8594;SDS011;4335;48.860;9.198;2023-02-15T13:23:06;25.23;;;17.20;;
8594;SDS011;4335;48.860;9.198;2023-02-15T13:25:44;21.37;;;17.43;;
8594;SDS011;4335;48.860;9.198;2023-02-15T13:28:18;26.53;;;18.37;;
8594;SDS011;4335;48.860;9.198;2023-02-15T13:30:51;25.03;;;19.10;;
8594;SDS011;4335;48.860;9.198;2023-02-15T13:33:20;23.70;;;17.50;;
8594;SDS011;4335;48.860;9.198;2023-02-15T13:35:58;25.43;;;18.00;;
8594;SDS011;4335;48.860;9.198;2023-02-15T13:38:46;23.70;;;17.33;;
8594;SDS011;4335;48.860;9.198;2023-02-15T13:41:23;23.77;;;15.80;;
8594;SDS011;4335;48.860;9.198;2023-02-15T13:43:57;22.93;;;16.10;;
8594;SDS011;4335;48.860;9.198;2023-02-15T13:46:49;19.90;;;16.40;;
8594;SDS011;4335;48.860;9.198;2023-02-15T13:49:28;19.30;;;16.40;;
8594;SDS011;4335;48.860;9.198;2023-02-15T13:52:12;24.93;;;16.50;;
8594;SDS011;4335;48.860;9.198;2023-02-15T13:54:47;22.17;;;16.80;;
8594;SDS011;4335;48.860;9.198;2023-02-15T14:00:20;21.17;;;17.50;;
8594;SDS011;4335;48.860;9.198;2023-02-15T14:06:00;21.60;;;15.67;;
8594;SDS011;4335;48.860;9.198;2023-02-15T14:08:52;24.00;;;15.73;;
8594;SDS011;4335;48.860;9.198;2023-02-15T14:11:32;21.03;;;14.83;;
8594;SDS011;4335;48.860;9.198;2023-02-15T14:16:59;21.43;;;15.63;;
8594;SDS011;4335;48.860;9.198;2023-02-15T14:19:35;20.17;;;15.63;;
8594;SDS011;4335;48.860;9.198;2023-02-15T14:22:07;18.93;;;15.33;;
8594;SDS011;4335;48.860;9.198;2023-02-15T14:24:46;20.23;;;15.03;;
8594;SDS011;4335;48.860;9.198;2023-02-15T14:27:34;18.23;;;14.67;;
8594;SDS011;4335;48.860;9.198;2023-02-15T14:30:13;18.43;;;13.80;;
8594;SDS011;4335;48.860;9.198;2023-02-15T14:32:46;19.27;;;14.97;;
8594;SDS011;4335;48.860;9.198;2023-02-15T14:35:16;15.93;;;13.30;;
8594;SDS011;4335;48.860;9.198;2023-02-15T14:37:45;16.40;;;13.03;;
8594;SDS011;4335;48.860;9.198;2023-02-15T14:40:19;18.03;;;13.90;;
8594;SDS011;4335;48.860;9.198;2023-02-15T14:43:17;16.13;;;12.37;;
8594;SDS011;4335;48.860;9.198;2023-02-15T14:45:52;18.67;;;13.43;;
8594;SDS011;4335;48.860;9.198;2023-02-15T14:48:20;18.33;;;13.60;;
8594;SDS011;4335;48.860;9.198;2023-02-15T14:50:51;16.57;;;13.67;;
8594;SDS011;4335;48.860;9.198;2023-02-15T14:53:34;16.10;;;13.43;;
8594;SDS011;4335;48.860;9.198;2023-02-15T14:56:13;14.70;;;12.37;;
8594;SDS011;4335;48.860;9.198;2023-02-15T14:59:00;15.63;;;12.60;;
8594;SDS011;4335;48.860;9.198;2023-02-15T15:04:36;18.63;;;14.50;;
8594;SDS011;4335;48.860;9.198;2023-02-15T15:07:08;16.47;;;13.33;;
8594;SDS011;4335;48.860;9.198;2023-02-15T15:09:43;19.17;;;12.77;;
8594;SDS011;4335;48.860;9.198;2023-02-15T15:12:18;15.50;;;12.10;;
8594;SDS011;4335;48.860;9.198;2023-02-15T15:15:04;17.33;;;13.43;;
8594;SDS011;4335;48.860;9.198;2023-02-15T15:17:52;16.43;;;11.73;;
8594;SDS011;4335;48.860;9.198;2023-02-15T15:26:26;18.60;;;13.97;;
8594;SDS011;4335;48.860;9.198;2023-02-15T15:28:58;19.77;;;14.83;;
8594;SDS011;4335;48.860;9.198;2023-02-15T15:34:17;19.47;;;14.17;;
8594;SDS011;4335;48.860;9.198;2023-02-15T15:46:54;19.30;;;14.47;;
8594;SDS011;4335;48.860;9.198;2023-02-15T15:49:54;20.10;;;14.90;;
8594;SDS011;4335;48.860;9.198;2023-02-15T15:52:23;22.87;;;15.70;;
8594;SDS011;4335;48.860;9.198;2023-02-15T15:54:55;29.53;;;20.10;;
8594;SDS011;4335;48.860;9.198;2023-02-15T15:57:31;21.37;;;15.83;;
8594;SDS011;4335;48.860;9.198;2023-02-15T16:00:04;24.30;;;16.43;;
8594;SDS011;4335;48.860;9.198;2023-02-15T16:02:54;21.07;;;15.13;;
8594;SDS011;4335;48.860;9.198;2023-02-15T16:05:21;22.23;;;16.63;;